Alba, Michigan
Current Conditions -  °F | °C
As of 3:58 AM on Thursday 23 Oct 2014 (Local Time) from KACB Reporting Station
Clear Clear  
Wind Chill: 28°   Ceiling: Unl
Heat Index: 28°   Visibility: 7mi
Dew Point: 27°   Wind: 0mph
Humidity: 96%   Direction: NA
Pressure: 30.26"   Gusts: NA
Location:  44.97°N, 84.97°W
Report Text: KACB 230758Z AUTO 00000KT 7SM CLR M02/M03 A3026 RMK AO2 T10251030
Loading
Personal Weather Stations






























Interactive Weather Map
Tropical Storm Tracking
New forecast layout! Learn more

10-Day Weather Forecast

Advertisements
Track Severe Weather on mobile